Time;durP1;ratioP1;P1;durP2;ratioP2;P2;SDS_P1;SDS_P2;PMS_P1;PMS_P2;Temp;Humidity;BMP_temperature;BMP_pressure;BME280_temperature;BME280_humidity;BME280_pressure;Samples;Min_cycle;Max_cycle;Signal;HPM_P1;HPM_P2
2022/05/25 00:02:00;;;;;;;1.02;0.40;;;11.60;99.90;;;;;;5036229;28;20021;-52
2022/05/25 00:04:26;;;;;;;1.40;0.50;;;11.70;99.90;;;;;;5034702;28;20021;-55
2022/05/25 00:06:51;;;;;;;1.60;0.90;;;11.70;99.90;;;;;;5035883;28;20043;-52
2022/05/25 00:09:17;;;;;;;1.83;0.65;;;11.70;99.90;;;;;;5034811;28;20386;-52
2022/05/25 00:11:43;;;;;;;2.67;1.73;;;11.70;99.90;;;;;;5035851;28;20048;-53
2022/05/25 00:14:09;;;;;;;0.73;0.43;;;11.70;99.90;;;;;;5035854;28;20088;-55
2022/05/25 00:16:34;;;;;;;1.63;0.60;;;11.70;99.90;;;;;;5034982;28;20108;-57
2022/05/25 00:21:45;;;;;;;0.60;0.60;;;11.70;99.90;;;;;;5036289;28;20080;-57
2022/05/25 00:24:11;;;;;;;3.38;1.00;;;11.70;99.90;;;;;;5034460;28;20025;-52
2022/05/25 00:26:37;;;;;;;1.35;0.50;;;11.70;99.90;;;;;;5034370;28;20491;-53
2022/05/25 00:29:04;;;;;;;2.15;0.60;;;11.70;99.90;;;;;;5034405;28;20025;-57
2022/05/25 00:31:30;;;;;;;2.28;0.43;;;11.70;99.90;;;;;;5035565;28;20108;-57
2022/05/25 00:33:56;;;;;;;6.10;0.68;;;11.70;99.90;;;;;;5035603;28;20026;-56
2022/05/25 00:36:23;;;;;;;0.95;0.80;;;11.70;99.90;;;;;;5035772;28;20048;-56
2022/05/25 00:38:48;;;;;;;1.50;0.90;;;11.70;99.90;;;;;;5034491;28;20028;-56
2022/05/25 00:41:15;;;;;;;3.53;0.80;;;11.70;99.90;;;;;;5034397;28;20060;-56
2022/05/25 00:43:42;;;;;;;1.60;0.60;;;11.70;99.90;;;;;;5035359;28;20030;-54
2022/05/25 00:46:12;;;;;;;2.10;0.80;;;11.70;99.90;;;;;;5034082;28;20026;-54
2022/05/25 00:48:46;;;;;;;3.72;0.82;;;11.70;99.90;;;;;;5035421;28;20033;-56
2022/05/25 00:51:16;;;;;;;2.90;1.00;;;11.70;99.90;;;;;;5033888;28;20028;-55
2022/05/25 00:53:51;;;;;;;5.53;0.65;;;11.70;99.90;;;;;;5033936;28;20064;-57
2022/05/25 00:56:20;;;;;;;0.50;0.50;;;11.60;99.90;;;;;;5035431;28;20018;-54
2022/05/25 00:59:00;;;;;;;0.85;0.70;;;11.60;99.90;;;;;;5035297;28;20022;-55
2022/05/25 01:01:27;;;;;;;1.45;0.70;;;11.60;99.90;;;;;;5034321;28;20022;-55
2022/05/25 01:03:53;;;;;;;1.20;0.70;;;11.60;99.90;;;;;;5035227;28;20017;-52
2022/05/25 01:06:47;;;;;;;1.70;0.77;;;11.60;99.90;;;;;;5035090;28;20048;-54
2022/05/25 01:09:23;;;;;;;5.78;1.15;;;11.50;99.90;;;;;;4997257;28;20029;-55
2022/05/25 01:12:16;;;;;;;2.47;0.80;;;11.50;99.90;;;;;;5033738;28;20022;-55
2022/05/25 01:14:57;;;;;;;2.00;0.80;;;11.40;99.90;;;;;;5033451;28;20021;-57
2022/05/25 01:17:41;;;;;;;2.20;0.80;;;11.40;99.90;;;;;;5033449;28;20475;-52
2022/05/25 01:20:07;;;;;;;2.70;0.80;;;11.50;99.90;;;;;;5033436;28;20030;-51
2022/05/25 01:22:42;;;;;;;5.70;1.15;;;11.30;99.90;;;;;;5033611;28;20076;-52
2022/05/25 01:25:13;;;;;;;0.82;0.70;;;11.40;99.90;;;;;;5034133;28;20032;-52
2022/05/25 01:27:43;;;;;;;0.57;0.50;;;11.30;99.90;;;;;;5034976;28;20067;-52
2022/05/25 01:30:32;;;;;;;1.05;0.75;;;11.30;99.90;;;;;;5033939;28;20087;-52
2022/05/25 01:33:35;;;;;;;1.30;0.77;;;11.20;99.90;;;;;;5034703;28;20018;-55
2022/05/25 01:36:19;;;;;;;2.35;0.80;;;11.20;99.90;;;;;;5032977;28;20030;-53
2022/05/25 01:38:58;;;;;;;3.90;1.30;;;11.20;99.90;;;;;;5034429;28;20018;-57
2022/05/25 01:41:37;;;;;;;3.55;1.40;;;11.10;99.90;;;;;;5034460;28;20029;-56
2022/05/25 01:44:17;;;;;;;2.13;0.93;;;11.10;99.90;;;;;;5034275;28;20029;-55
2022/05/25 01:47:03;;;;;;;5.43;1.13;;;11.00;99.90;;;;;;5033686;28;20025;-55
2022/05/25 01:49:34;;;;;;;1.30;0.88;;;11.00;99.90;;;;;;5034410;28;20029;-52
2022/05/25 01:52:05;;;;;;;1.33;0.93;;;10.90;99.90;;;;;;5032878;28;20095;-57
2022/05/25 01:54:38;;;;;;;2.13;0.70;;;10.80;99.90;;;;;;5033914;28;20476;-52
2022/05/25 01:57:09;;;;;;;3.40;1.00;;;10.80;99.90;;;;;;5034099;28;20097;-56
2022/05/25 01:59:35;;;;;;;3.80;0.70;;;10.80;99.90;;;;;;5034062;28;20029;-53
2022/05/25 02:04:50;;;;;;;1.13;0.73;;;10.90;99.90;;;;;;5034233;28;20111;-57
2022/05/25 02:07:28;;;;;;;0.82;0.65;;;10.90;99.90;;;;;;5033922;28;20033;-53
2022/05/25 02:10:24;;;;;;;1.30;0.82;;;10.90;99.90;;;;;;5032516;28;20112;-50
2022/05/25 02:12:50;;;;;;;1.30;1.15;;;10.90;99.90;;;;;;5034031;28;20047;-47
2022/05/25 02:15:34;;;;;;;0.93;0.68;;;10.80;99.90;;;;;;5032337;28;20117;-52
2022/05/25 02:18:29;;;;;;;7.15;0.93;;;10.80;99.90;;;;;;5031828;28;20080;-55
2022/05/25 02:21:16;;;;;;;3.17;0.95;;;10.80;99.90;;;;;;5002985;28;20064;-55
2022/05/25 02:24:11;;;;;;;1.58;0.90;;;10.70;99.90;;;;;;5032767;28;20025;-54
2022/05/25 02:26:48;;;;;;;1.38;0.63;;;10.70;99.90;;;;;;5033741;28;20048;-50
2022/05/25 02:29:32;;;;;;;2.35;0.77;;;10.50;99.90;;;;;;5033780;28;20021;-51
2022/05/25 02:32:09;;;;;;;5.85;0.70;;;10.40;99.90;;;;;;5032165;28;20026;-50
2022/05/25 02:34:39;;;;;;;1.45;1.10;;;10.40;99.90;;;;;;5033133;28;20044;-50
2022/05/25 02:37:05;;;;;;;2.72;0.65;;;10.40;99.90;;;;;;5032060;28;20080;-51
2022/05/25 02:39:31;;;;;;;4.18;1.15;;;10.40;99.90;;;;;;5033395;28;20155;-52
2022/05/25 02:41:57;;;;;;;0.95;0.60;;;10.30;99.90;;;;;;5032283;28;20029;-50
2022/05/25 02:44:24;;;;;;;2.97;0.95;;;10.40;99.90;;;;;;5033148;28;20025;-55
2022/05/25 02:46:50;;;;;;;0.98;0.68;;;10.40;99.90;;;;;;5033359;28;20029;-52
2022/05/25 02:49:16;;;;;;;6.22;0.93;;;10.40;99.90;;;;;;5033165;28;20048;-55
2022/05/25 02:51:43;;;;;;;0.50;0.50;;;10.30;99.90;;;;;;5031774;28;20029;-55
2022/05/25 02:54:09;;;;;;;1.63;0.85;;;10.30;99.90;;;;;;5031928;28;20460;-50
2022/05/25 02:56:36;;;;;;;2.35;0.90;;;10.20;99.90;;;;;;5031879;28;20026;-54
2022/05/25 02:59:02;;;;;;;2.72;0.80;;;10.20;99.90;;;;;;5032182;28;20112;-53
2022/05/25 03:01:28;;;;;;;5.53;1.08;;;10.20;99.90;;;;;;5032838;28;20029;-52
2022/05/25 03:03:54;;;;;;;9.15;0.90;;;10.20;99.90;;;;;;5032341;28;20029;-55
2022/05/25 03:06:21;;;;;;;1.10;1.00;;;10.10;99.90;;;;;;5032982;28;20028;-53
2022/05/25 03:08:46;;;;;;;1.58;0.70;;;10.10;99.90;;;;;;5031715;28;20109;-49
2022/05/25 03:11:12;;;;;;;5.50;0.88;;;10.10;99.90;;;;;;5031429;28;20097;-53
2022/05/25 03:13:38;;;;;;;2.75;0.80;;;10.10;99.90;;;;;;5031494;28;20025;-53
2022/05/25 03:16:07;;;;;;;2.53;0.70;;;10.10;99.90;;;;;;5031500;28;20056;-55
2022/05/25 03:18:33;;;;;;;3.20;0.80;;;10.10;99.90;;;;;;5031451;28;20021;-54
2022/05/25 03:20:59;;;;;;;2.40;1.48;;;10.00;99.90;;;;;;5032270;28;20067;-55
2022/05/25 03:23:25;;;;;;;1.73;0.77;;;9.90;99.90;;;;;;5032790;28;20057;-56
2022/05/25 03:25:50;;;;;;;0.88;0.70;;;9.90;99.90;;;;;;5031664;28;20030;-56
2022/05/25 03:28:16;;;;;;;3.72;1.02;;;10.00;99.90;;;;;;5031421;28;20022;-57
2022/05/25 03:30:44;;;;;;;1.20;0.80;;;9.90;99.90;;;;;;5036054;28;20036;-57
2022/05/25 03:33:10;;;;;;;1.60;0.98;;;10.00;99.90;;;;;;5035720;28;20493;-56
2022/05/25 03:35:36;;;;;;;5.85;0.90;;;9.90;99.90;;;;;;5036805;28;20033;-57
2022/05/25 03:38:02;;;;;;;1.45;0.93;;;9.90;99.90;;;;;;5035770;28;20025;-56
2022/05/25 03:40:28;;;;;;;5.72;1.30;;;9.90;99.90;;;;;;5035336;28;20021;-52
2022/05/25 03:42:54;;;;;;;0.85;0.80;;;10.00;99.90;;;;;;5035261;28;20032;-51
2022/05/25 03:45:20;;;;;;;1.23;0.57;;;9.90;99.90;;;;;;5035442;28;20025;-50
2022/05/25 03:47:45;;;;;;;1.42;0.70;;;9.90;99.90;;;;;;5035116;28;20140;-50
2022/05/25 03:50:11;;;;;;;11.05;1.20;;;9.90;99.90;;;;;;5035137;28;20040;-50
2022/05/25 03:52:38;;;;;;;1.67;0.70;;;9.80;99.90;;;;;;5035398;28;20029;-56
2022/05/25 03:55:05;;;;;;;2.05;0.65;;;9.80;99.90;;;;;;5034948;28;20025;-52
2022/05/25 03:57:31;;;;;;;0.80;0.70;;;9.90;99.90;;;;;;5036255;28;20022;-50
2022/05/25 03:59:57;;;;;;;2.88;0.95;;;9.90;99.90;;;;;;5034973;28;20052;-55
2022/05/25 04:02:22;;;;;;;4.38;0.90;;;10.00;99.90;;;;;;5036110;28;20021;-54
2022/05/25 04:05:07;;;;;;;4.47;1.10;;;10.30;99.90;;;;;;5035994;28;20029;-52
2022/05/25 04:07:37;;;;;;;5.45;1.00;;;10.30;99.90;;;;;;5036334;28;20025;-52
2022/05/25 04:10:05;;;;;;;1.33;0.60;;;10.40;99.90;;;;;;5034741;28;20034;-52
2022/05/25 04:12:30;;;;;;;4.13;0.70;;;10.60;99.90;;;;;;5035526;28;20017;-52
2022/05/25 04:14:56;;;;;;;1.70;0.77;;;10.70;99.90;;;;;;5034615;28;20026;-49
2022/05/25 04:17:22;;;;;;;1.02;0.77;;;10.90;99.90;;;;;;5035854;28;20026;-51
2022/05/25 04:19:47;;;;;;;1.48;0.95;;;11.00;99.90;;;;;;5035327;28;20079;-51
2022/05/25 04:22:13;;;;;;;2.13;1.20;;;11.20;99.90;;;;;;5034812;28;20064;-51
2022/05/25 04:24:38;;;;;;;4.15;1.15;;;11.30;99.90;;;;;;5034396;28;20021;-50
2022/05/25 04:27:04;;;;;;;1.65;0.98;;;11.50;99.90;;;;;;5034480;28;20021;-52
2022/05/25 04:29:29;;;;;;;1.02;0.88;;;12.00;99.90;;;;;;5034326;28;20024;-50
2022/05/25 04:31:55;;;;;;;1.33;1.00;;;12.30;99.90;;;;;;5034553;28;20543;-52
2022/05/25 04:34:21;;;;;;;1.02;0.85;;;12.80;99.90;;;;;;5034606;28;20033;-50
2022/05/25 04:36:46;;;;;;;2.85;1.10;;;13.20;99.90;;;;;;5034786;28;20022;-52
2022/05/25 04:39:12;;;;;;;1.17;0.82;;;13.60;99.90;;;;;;5035054;28;20021;-51
2022/05/25 04:41:37;;;;;;;0.73;0.63;;;14.00;99.90;;;;;;5034178;28;20032;-55
2022/05/25 04:44:04;;;;;;;4.22;1.00;;;14.30;99.90;;;;;;5034532;28;20123;-55
2022/05/25 04:46:30;;;;;;;3.47;1.50;;;14.60;99.90;;;;;;5034544;28;20033;-56
2022/05/25 04:48:57;;;;;;;2.05;1.05;;;14.90;99.90;;;;;;5034802;28;20492;-54
2022/05/25 04:51:23;;;;;;;1.63;0.88;;;14.90;99.90;;;;;;5035707;28;20021;-52
2022/05/25 04:53:49;;;;;;;2.15;1.15;;;15.10;99.90;;;;;;5034406;28;20021;-53
2022/05/25 04:58:58;;;;;;;7.47;1.05;;;15.50;99.90;;;;;;5036238;28;20040;-57
2022/05/25 05:01:24;;;;;;;0.90;0.73;;;15.70;99.90;;;;;;5034680;28;20029;-53
2022/05/25 05:03:50;;;;;;;0.75;0.75;;;15.90;99.90;;;;;;5035445;28;20032;-54
2022/05/25 05:06:16;;;;;;;1.63;1.10;;;16.10;99.90;;;;;;5034183;28;20108;-54
2022/05/25 05:08:42;;;;;;;2.60;1.15;;;16.10;99.90;;;;;;5034152;28;20052;-56
2022/05/25 05:11:16;;;;;;;1.27;1.00;;;16.60;99.90;;;;;;5035303;28;20029;-55
2022/05/25 05:13:43;;;;;;;4.25;0.98;;;16.50;99.90;;;;;;5034373;28;20028;-55
2022/05/25 05:16:15;;;;;;;5.93;1.65;;;16.80;99.90;;;;;;5035370;28;20022;-56
2022/05/25 05:18:42;;;;;;;2.13;0.90;;;17.20;99.90;;;;;;5035206;28;20018;-55
2022/05/25 05:21:09;;;;;;;1.30;0.80;;;17.70;99.90;;;;;;5034410;28;20525;-55
2022/05/25 05:23:37;;;;;;;0.50;0.50;;;18.20;99.90;;;;;;5033864;28;20092;-55
2022/05/25 05:26:04;;;;;;;1.25;0.90;;;18.70;99.90;;;;;;5035136;28;20414;-55
2022/05/25 05:28:35;;;;;;;1.98;1.00;;;19.20;99.90;;;;;;5034051;28;20551;-56
2022/05/25 05:31:02;;;;;;;2.03;0.77;;;19.60;99.90;;;;;;5035018;28;20029;-55
2022/05/25 05:33:28;;;;;;;5.20;0.75;;;19.60;99.90;;;;;;5033627;28;20082;-55
2022/05/25 05:36:32;;;;;;;3.53;0.75;;;20.20;99.90;;;;;;5034180;28;20075;-53
2022/05/25 05:39:05;;;;;;;3.17;0.90;;;20.40;99.90;;;;;;5001433;28;20152;-52
2022/05/25 05:41:35;;;;;;;2.90;1.33;;;21.00;99.90;;;;;;5035123;28;20033;-53
2022/05/25 05:44:02;;;;;;;3.13;1.27;;;21.40;99.90;;;;;;5035071;28;20045;-57
2022/05/25 05:46:29;;;;;;;5.70;1.30;;;21.90;99.90;;;;;;5033522;28;20025;-57
2022/05/25 05:48:55;;;;;;;2.08;1.10;;;22.40;99.90;;;;;;5034052;28;20072;-55
2022/05/25 05:51:21;;;;;;;2.90;1.33;;;22.70;99.90;;;;;;5034558;28;20064;-56
2022/05/25 05:53:48;;;;;;;5.00;1.17;;;22.70;99.90;;;;;;5032333;28;20029;-53
2022/05/25 05:56:14;;;;;;;1.40;0.93;;;23.10;99.90;;;;;;5034585;28;20423;-51
2022/05/25 05:58:39;;;;;;;1.67;0.98;;;23.40;99.90;;;;;;5033300;28;20075;-57
2022/05/25 06:01:05;;;;;;;1.30;0.50;;;24.10;99.90;;;;;;5033345;28;20025;-57
2022/05/25 06:03:31;;;;;;;4.15;0.80;;;24.70;99.90;;;;;;5034348;28;20032;-54
2022/05/25 06:05:56;;;;;;;3.17;0.98;;;25.10;99.90;;;;;;5033214;28;20033;-52
2022/05/25 06:08:27;;;;;;;1.30;0.70;;;25.10;99.90;;;;;;5033098;28;20025;-54
2022/05/25 06:10:54;;;;;;;2.47;1.17;;;25.30;99.90;;;;;;5033306;28;20022;-51
2022/05/25 06:13:20;;;;;;;2.42;0.95;;;25.80;99.90;;;;;;5033052;28;20060;-54
2022/05/25 06:21:19;;;;;;;7.50;1.45;;;27.20;98.50;;;;;;5034710;28;20075;-55
2022/05/25 06:23:45;;;;;;;4.07;1.13;;;27.20;96.40;;;;;;5034023;28;20021;-54
2022/05/25 06:26:12;;;;;;;2.83;1.75;;;27.50;95.40;;;;;;5034063;28;20026;-52
2022/05/25 06:28:38;;;;;;;2.30;1.30;;;27.40;94.10;;;;;;5033985;28;20032;-51
2022/05/25 06:31:04;;;;;;;1.83;1.27;;;28.00;94.80;;;;;;5032660;28;20030;-53
2022/05/25 06:33:29;;;;;;;4.32;1.10;;;28.30;95.90;;;;;;5033805;28;20033;-53
2022/05/25 06:35:56;;;;;;;4.65;1.10;;;28.90;92.90;;;;;;5034041;28;20112;-52
2022/05/25 06:38:21;;;;;;;3.60;1.17;;;28.90;92.20;;;;;;5033859;28;20072;-48
2022/05/25 06:40:47;;;;;;;3.40;1.20;;;29.20;91.20;;;;;;5032516;28;20448;-47
2022/05/25 06:43:13;;;;;;;4.43;1.08;;;29.60;91.30;;;;;;5032411;28;20083;-48
2022/05/25 06:45:38;;;;;;;1.48;1.20;;;29.70;89.90;;;;;;5033648;28;20030;-47
2022/05/25 06:48:05;;;;;;;1.20;1.10;;;29.80;88.70;;;;;;5033958;28;20381;-49
2022/05/25 06:50:31;;;;;;;1.90;1.00;;;29.90;86.90;;;;;;5032263;28;20029;-48
2022/05/25 06:52:57;;;;;;;2.10;1.25;;;29.70;86.60;;;;;;5033587;28;20029;-48
2022/05/25 06:55:22;;;;;;;2.50;0.88;;;29.20;85.90;;;;;;5032264;28;20035;-49
2022/05/25 06:57:48;;;;;;;2.55;0.85;;;29.70;91.80;;;;;;5033462;28;20080;-49
2022/05/25 07:00:14;;;;;;;1.25;1.08;;;30.00;86.40;;;;;;5033503;28;20049;-48
2022/05/25 07:02:40;;;;;;;2.35;1.48;;;30.60;84.00;;;;;;5032988;28;20025;-48
2022/05/25 07:05:05;;;;;;;1.02;0.85;;;31.20;83.90;;;;;;5033139;28;20538;-48
2022/05/25 07:07:32;;;;;;;6.15;3.20;;;31.00;83.60;;;;;;5032105;28;20025;-48
2022/05/25 07:09:58;;;;;;;2.60;1.10;;;31.70;78.60;;;;;;5033240;28;20053;-48
2022/05/25 07:12:24;;;;;;;1.33;0.88;;;31.80;78.30;;;;;;5033539;28;20064;-49
2022/05/25 07:14:50;;;;;;;1.15;0.82;;;31.80;77.30;;;;;;5033343;28;20022;-49
2022/05/25 07:17:15;;;;;;;2.42;0.82;;;32.50;76.30;;;;;;5032305;28;20072;-48
2022/05/25 07:19:41;;;;;;;3.35;0.82;;;31.60;74.20;;;;;;5032416;28;20033;-47
2022/05/25 07:22:08;;;;;;;3.80;1.77;;;30.80;77.90;;;;;;5032539;28;20072;-48
2022/05/25 07:24:34;;;;;;;2.85;1.20;;;31.50;76.30;;;;;;5031896;28;20025;-48
2022/05/25 07:27:00;;;;;;;3.20;1.20;;;32.30;73.60;;;;;;5033031;28;20025;-48
2022/05/25 07:29:25;;;;;;;2.20;1.20;;;32.30;73.30;;;;;;5033451;28;20040;-51
2022/05/25 07:31:55;;;;;;;1.98;1.33;;;32.70;72.50;;;;;;5032201;28;20025;-47
2022/05/25 07:34:25;;;;;;;2.25;2.00;;;32.60;71.60;;;;;;5032113;28;20034;-47
2022/05/25 07:37:03;;;;;;;2.63;1.02;;;33.40;69.50;;;;;;5031807;28;20112;-48
2022/05/25 07:39:39;;;;;;;1.15;0.98;;;33.60;68.80;;;;;;5032316;28;20056;-48
2022/05/25 07:42:06;;;;;;;5.18;3.53;;;34.00;69.30;;;;;;5032683;28;20028;-50
2022/05/25 07:44:57;;;;;;;6.93;2.92;;;34.40;66.20;;;;;;5031787;28;20033;-48
2022/05/25 07:47:24;;;;;;;1.75;1.40;;;34.40;65.40;;;;;;5033284;28;20032;-51
2022/05/25 07:49:50;;;;;;;3.58;1.40;;;34.70;65.00;;;;;;5031718;28;20025;-49
2022/05/25 07:52:16;;;;;;;2.08;1.30;;;34.80;65.40;;;;;;5031642;28;20163;-50
2022/05/25 07:54:45;;;;;;;2.95;1.15;;;35.80;64.70;;;;;;5031930;28;20115;-50
2022/05/25 07:57:12;;;;;;;2.88;1.25;;;36.20;62.40;;;;;;5032935;28;20057;-52
2022/05/25 07:59:39;;;;;;;1.13;0.93;;;36.50;62.50;;;;;;5031667;28;20030;-48
2022/05/25 08:07:46;;;;;;;4.72;1.80;;;36.90;59.90;;;;;;5033413;28;20032;-48
2022/05/25 08:10:16;;;;;;;4.28;2.15;;;37.10;57.50;;;;;;5031499;28;20438;-48
2022/05/25 08:12:43;;;;;;;2.38;1.30;;;37.10;59.00;;;;;;5032456;28;20036;-53
2022/05/25 08:15:11;;;;;;;3.00;1.27;;;37.20;58.70;;;;;;5031513;28;20036;-50
2022/05/25 08:17:37;;;;;;;3.45;1.67;;;37.50;56.90;;;;;;5034868;28;20163;-55
2022/05/25 08:20:04;;;;;;;3.47;1.60;;;36.00;56.80;;;;;;5035164;28;20048;-53
2022/05/25 08:22:29;;;;;;;2.90;1.42;;;35.20;57.60;;;;;;5036652;28;20025;-48
2022/05/25 08:24:56;;;;;;;2.72;1.90;;;35.40;58.60;;;;;;5035238;28;20075;-48
2022/05/25 08:27:21;;;;;;;1.55;1.40;;;35.30;56.20;;;;;;5035176;28;20034;-54
2022/05/25 08:29:47;;;;;;;2.33;1.40;;;34.40;56.40;;;;;;5036326;28;20017;-54
2022/05/25 08:32:14;;;;;;;2.45;1.30;;;33.40;58.50;;;;;;5034780;28;20072;-54
2022/05/25 08:34:40;;;;;;;5.47;1.80;;;33.10;59.80;;;;;;5036128;28;20030;-49
2022/05/25 08:37:06;;;;;;;5.60;1.50;;;32.80;59.30;;;;;;5034888;28;20029;-47
2022/05/25 08:39:32;;;;;;;2.78;1.40;;;33.10;61.60;;;;;;5036032;28;20052;-53
2022/05/25 08:42:01;;;;;;;3.72;1.20;;;34.00;59.30;;;;;;5036221;28;20034;-50
2022/05/25 08:44:27;;;;;;;3.42;1.40;;;34.50;58.30;;;;;;5036159;28;20033;-53
2022/05/25 08:46:59;;;;;;;3.60;1.15;;;35.10;57.00;;;;;;5035976;28;20091;-53
2022/05/25 08:49:29;;;;;;;4.85;1.38;;;35.90;56.50;;;;;;5036178;28;20035;-55
2022/05/25 08:51:58;;;;;;;2.35;1.23;;;36.20;55.60;;;;;;5036382;28;20025;-52
2022/05/25 08:54:27;;;;;;;4.85;1.17;;;36.20;54.00;;;;;;5034722;28;20021;-50
2022/05/25 08:57:03;;;;;;;2.35;0.90;;;36.70;54.40;;;;;;5035267;28;20116;-54
2022/05/25 09:00:01;;;;;;;1.42;0.77;;;36.50;52.70;;;;;;5035244;28;20021;-55
2022/05/25 09:02:29;;;;;;;2.47;0.95;;;36.80;52.80;;;;;;5034532;28;20022;-55
2022/05/25 09:05:16;;;;;;;2.63;0.93;;;36.60;52.50;;;;;;5034225;28;20480;-54
2022/05/25 09:07:57;;;;;;;3.22;1.33;;;36.80;53.00;;;;;;5035531;28;20476;-51
2022/05/25 09:10:23;;;;;;;3.00;0.75;;;36.90;52.10;;;;;;5035745;28;20030;-51
2022/05/25 09:12:58;;;;;;;0.57;0.57;;;37.50;51.10;;;;;;5035403;28;20060;-50
2022/05/25 09:18:35;;;;;;;5.30;1.00;;;37.80;48.80;;;;;;5035984;28;20032;-55
2022/05/25 09:21:04;;;;;;;1.02;0.70;;;38.30;48.30;;;;;;5035001;28;20041;-51
2022/05/25 09:23:31;;;;;;;2.35;0.80;;;38.70;48.70;;;;;;5034417;28;20117;-51
2022/05/25 09:25:58;;;;;;;4.32;0.70;;;38.90;47.90;;;;;;5035441;28;20061;-55
2022/05/25 09:28:37;;;;;;;1.25;0.77;;;38.40;48.40;;;;;;5033709;28;20120;-55
2022/05/25 09:31:03;;;;;;;3.90;0.82;;;38.40;47.60;;;;;;5035095;28;20029;-53
2022/05/25 09:33:38;;;;;;;2.40;0.82;;;38.50;46.70;;;;;;5033684;28;20021;-55
2022/05/25 09:36:30;;;;;;;2.38;0.85;;;38.60;47.80;;;;;;5035339;28;20029;-55
2022/05/25 09:39:04;;;;;;;1.45;0.70;;;37.90;48.00;;;;;;5025137;28;20103;-55
2022/05/25 09:41:32;;;;;;;7.50;1.10;;;37.90;48.00;;;;;;5034163;28;20120;-55
2022/05/25 09:44:00;;;;;;;0.82;0.70;;;38.30;47.90;;;;;;5034792;28;20025;-52
2022/05/25 09:46:31;;;;;;;1.67;1.25;;;39.00;46.50;;;;;;5033708;28;20083;-55
2022/05/25 09:49:02;;;;;;;4.50;0.80;;;39.00;47.50;;;;;;5033590;28;20060;-55
2022/05/25 09:51:42;;;;;;;1.75;0.80;;;38.80;45.60;;;;;;5034964;28;20049;-51
2022/05/25 09:54:28;;;;;;;0.80;0.80;;;38.90;46.10;;;;;;5033842;28;20072;-53
2022/05/25 09:57:02;;;;;;;4.05;0.65;;;39.10;45.40;;;;;;5033533;28;20080;-55
2022/05/25 09:59:47;;;;;;;2.28;0.98;;;39.30;46.10;;;;;;5033423;28;20025;-55
2022/05/25 10:02:25;;;;;;;2.05;0.82;;;39.00;46.40;;;;;;5033630;28;20033;-54
2022/05/25 10:04:52;;;;;;;4.07;0.73;;;38.50;45.20;;;;;;5033423;28;20028;-54
2022/05/25 10:07:34;;;;;;;1.15;0.60;;;37.80;46.50;;;;;;5033936;28;20032;-55
2022/05/25 10:10:07;;;;;;;1.13;0.70;;;37.50;46.50;;;;;;5034169;28;20060;-51
2022/05/25 10:13:02;;;;;;;1.80;1.40;;;37.20;48.40;;;;;;5034641;28;20033;-55
2022/05/25 10:15:36;;;;;;;2.03;0.77;;;36.80;47.10;;;;;;5034186;28;20021;-49
2022/05/25 10:18:04;;;;;;;0.85;0.60;;;36.40;48.40;;;;;;5032867;28;20032;-52
2022/05/25 10:20:48;;;;;;;2.25;0.43;;;35.90;48.00;;;;;;5032932;28;20030;-53
2022/05/25 10:23:20;;;;;;;1.05;0.50;;;35.40;48.90;;;;;;5032839;28;20030;-54
2022/05/25 10:25:48;;;;;;;4.03;0.68;;;35.00;48.20;;;;;;5033553;28;20059;-54
2022/05/25 10:28:27;;;;;;;0.85;0.50;;;34.90;47.80;;;;;;5034606;28;20033;-53
2022/05/25 10:36:58;;;;;;;1.77;0.90;;;33.20;49.90;;;;;;5034433;28;20036;-54
2022/05/25 10:39:30;;;;;;;2.72;0.60;;;31.80;51.50;;;;;;5033345;28;20029;-54
2022/05/25 10:42:23;;;;;;;0.88;0.63;;;31.30;53.00;;;;;;5032437;28;20072;-54
2022/05/25 10:44:52;;;;;;;1.35;0.50;;;30.90;53.00;;;;;;5032727;28;20048;-54
2022/05/25 10:47:54;;;;;;;5.55;2.30;;;30.50;54.30;;;;;;5033688;28;20030;-54
2022/05/25 10:50:35;;;;;;;0.40;0.40;;;30.00;55.60;;;;;;5027722;28;20067;-52
2022/05/25 10:53:29;;;;;;;0.90;0.30;;;30.00;54.20;;;;;;5033609;28;20055;-52
2022/05/25 10:56:04;;;;;;;1.77;0.40;;;29.80;54.00;;;;;;5028347;28;20030;-54
2022/05/25 10:58:54;;;;;;;2.92;0.50;;;29.20;51.70;;;;;;5033909;28;20028;-54
2022/05/25 11:01:31;;;;;;;0.75;0.35;;;28.90;55.80;;;;;;5033580;28;20025;-53
2022/05/25 11:03:56;;;;;;;2.67;0.40;;;28.40;53.80;;;;;;5032696;28;20029;-54
2022/05/25 11:06:41;;;;;;;1.02;0.82;;;27.90;54.90;;;;;;5032213;28;20116;-54
2022/05/25 11:09:24;;;;;;;0.65;0.50;;;27.40;55.80;;;;;;5033339;28;20423;-54
2022/05/25 11:12:20;;;;;;;0.82;0.45;;;27.10;55.80;;;;;;5033276;28;20029;-53
2022/05/25 11:14:57;;;;;;;2.72;0.30;;;26.70;54.80;;;;;;5031963;28;20048;-50
2022/05/25 11:17:30;;;;;;;0.80;0.38;;;26.60;57.10;;;;;;5032186;28;20128;-51
2022/05/25 11:20:29;;;;;;;0.80;0.30;;;26.50;57.70;;;;;;5033322;28;20052;-55
2022/05/25 11:23:23;;;;;;;2.13;0.40;;;26.50;57.70;;;;;;5032043;28;20026;-55
2022/05/25 11:26:10;;;;;;;0.52;0.22;;;26.40;57.40;;;;;;5031974;28;20142;-54
2022/05/25 11:29:04;;;;;;;1.45;0.40;;;26.40;57.80;;;;;;5031927;28;20026;-54
2022/05/25 11:32:09;;;;;;;5.38;0.43;;;26.10;56.70;;;;;;5031909;28;20040;-55
2022/05/25 11:35:17;;;;;;;1.85;1.10;;;26.00;57.00;;;;;;5010014;28;20050;-54
2022/05/25 11:38:01;;;;;;;2.75;1.10;;;25.80;56.90;;;;;;4956246;28;20093;-51
2022/05/25 11:40:48;;;;;;;1.08;0.30;;;25.80;58.60;;;;;;5026345;28;20034;-54
2022/05/25 11:43:42;;;;;;;0.73;0.22;;;25.80;59.40;;;;;;5031815;28;20029;-55
2022/05/25 11:46:36;;;;;;;1.77;0.20;;;25.60;56.30;;;;;;5031851;28;20030;-54
2022/05/25 11:49:29;;;;;;;1.48;0.25;;;25.40;56.10;;;;;;5033334;28;20025;-55
2022/05/25 11:52:00;;;;;;;1.00;0.40;;;25.30;58.60;;;;;;5033890;28;20021;-53
2022/05/25 11:54:50;;;;;;;1.65;0.20;;;25.20;57.50;;;;;;5036796;28;20075;-53
2022/05/25 11:57:44;;;;;;;1.05;0.40;;;25.00;58.20;;;;;;5035615;28;20021;-53
2022/05/25 12:00:27;;;;;;;4.03;0.98;;;24.90;58.90;;;;;;5035548;28;20026;-52
2022/05/25 12:03:30;;;;;;;4.15;0.40;;;24.80;58.40;;;;;;5035556;28;20022;-50
2022/05/25 12:06:20;;;;;;;0.85;0.28;;;25.10;58.00;;;;;;4959945;28;20059;-53
2022/05/25 12:09:14;;;;;;;3.60;0.50;;;25.10;56.10;;;;;;5035279;28;20041;-54
2022/05/25 12:12:04;;;;;;;0.57;0.47;;;25.00;58.10;;;;;;5035271;28;20040;-50
2022/05/25 12:14:54;;;;;;;0.20;0.20;;;24.90;58.10;;;;;;5035239;28;20024;-55
2022/05/25 12:17:19;;;;;;;0.77;0.20;;;24.80;61.60;;;;;;5035234;28;20488;-54
2022/05/25 12:19:48;;;;;;;0.88;0.20;;;24.70;60.00;;;;;;5035432;28;20060;-54
2022/05/25 12:22:18;;;;;;;0.40;0.30;;;24.50;59.60;;;;;;5035160;28;20093;-55
2022/05/25 12:24:55;;;;;;;2.20;0.28;;;24.40;59.80;;;;;;5034993;28;20021;-55
2022/05/25 12:27:32;;;;;;;1.40;0.25;;;24.40;60.20;;;;;;5036632;28;20025;-48
2022/05/25 12:30:07;;;;;;;0.60;0.20;;;24.30;59.10;;;;;;5035044;28;20034;-53
2022/05/25 12:32:35;;;;;;;1.00;0.30;;;24.10;59.50;;;;;;5034932;28;20391;-51
2022/05/25 12:35:01;;;;;;;1.55;0.50;;;24.00;60.00;;;;;;5034890;28;20059;-55
2022/05/25 12:37:47;;;;;;;0.45;0.40;;;23.90;58.70;;;;;;5036073;28;20037;-51
2022/05/25 12:40:38;;;;;;;0.73;0.30;;;24.00;61.80;;;;;;5036119;28;20033;-48
2022/05/25 12:43:04;;;;;;;0.55;0.30;;;24.10;61.80;;;;;;5026305;28;20195;-49
2022/05/25 12:48:38;;;;;;;0.68;0.22;;;24.10;60.60;;;;;;5035953;28;20087;-51
2022/05/25 12:51:08;;;;;;;0.75;0.25;;;24.00;61.00;;;;;;5035479;28;20112;-49
2022/05/25 12:53:39;;;;;;;0.75;0.30;;;24.10;61.20;;;;;;5034788;28;20029;-54
2022/05/25 12:56:10;;;;;;;;;;;24.10;61.00;;;;;;5035246;28;20487;-55
2022/05/25 12:58:50;;;;;;;0.85;0.30;;;24.30;61.40;;;;;;5035141;28;20003;-49
2022/05/25 13:01:22;;;;;;;0.30;0.30;;;24.40;60.80;;;;;;5034465;28;20545;-55
2022/05/25 13:03:47;;;;;;;2.28;0.32;;;24.60;60.00;;;;;;5033950;28;20028;-53
2022/05/25 13:06:22;;;;;;;1.20;0.32;;;24.60;60.80;;;;;;5034315;28;20116;-48
2022/05/25 13:08:48;;;;;;;0.20;0.20;;;24.50;60.50;;;;;;5034211;28;20029;-48
2022/05/25 13:11:43;;;;;;;1.48;0.40;;;24.50;61.20;;;;;;5035655;28;20039;-53
2022/05/25 13:14:18;;;;;;;0.22;0.20;;;24.50;59.30;;;;;;5035728;28;20036;-52
2022/05/25 13:16:48;;;;;;;0.95;0.60;;;24.30;59.60;;;;;;5035472;28;20029;-55
2022/05/25 13:19:18;;;;;;;0.43;0.30;;;24.30;60.80;;;;;;5034125;28;20028;-48
2022/05/25 13:22:06;;;;;;;0.57;0.40;;;24.30;60.10;;;;;;5035658;28;20029;-55
2022/05/25 13:24:47;;;;;;;0.95;0.30;;;24.40;59.30;;;;;;5026146;28;20583;-54
2022/05/25 13:27:21;;;;;;;0.32;0.20;;;24.40;58.60;;;;;;5035094;28;20067;-55
2022/05/25 13:30:02;;;;;;;1.38;0.30;;;24.40;60.00;;;;;;5034190;28;20035;-51
2022/05/25 13:32:49;;;;;;;0.77;0.28;;;24.40;59.60;;;;;;5033776;28;20048;-55
2022/05/25 13:35:14;;;;;;;0.45;0.25;;;24.30;60.50;;;;;;5034121;28;20026;-55
2022/05/25 13:37:40;;;;;;;0.52;0.35;;;24.10;61.30;;;;;;5034924;28;20072;-55
2022/05/25 13:40:12;;;;;;;1.08;0.40;;;24.00;59.30;;;;;;5034567;28;20040;-53
2022/05/25 13:42:43;;;;;;;2.15;0.38;;;23.90;59.80;;;;;;5033722;28;20021;-55
2022/05/25 13:45:18;;;;;;;0.63;0.15;;;23.70;58.80;;;;;;5033548;28;20026;-57
2022/05/25 13:47:55;;;;;;;1.75;0.32;;;23.40;60.40;;;;;;5034875;28;20080;-57